Inkster, Michigan
Current Conditions -  °F | °C
As of 8:53 AM on Monday 20 Oct 2014 (Local Time) from KDTW Reporting Station
Overcast Overcast  
Wind Chill:   Ceiling: 7500
Heat Index:   Visibility: 9mi
Dew Point:   Wind: 8mph
Humidity: 86%   Direction: 190°S
Pressure: 29.87"   Gusts: NA
Location:  42.3°N, 83.31°W
Report Text: KDTW 201253Z 19007KT 9SM SCT045 OVC075 09/07 A2987 RMK AO2 SLP118 T00890067
Loading
Personal Weather Stations






























Interactive Weather Map
Tropical Storm Tracking
New forecast layout! Learn more

10-Day Weather Forecast

Advertisements
Track Severe Weather on mobile